MV Sally Archer — WDB7650 — position and weather

sailwx.info

Track history (hours):
 
Tides and Currents Weather Stations Pressure Air Temp Water Temp Dewpoint Dewpoint Depression Visibility Wind Speed Wind Dir Waves Ship Positions

MV Sally Archer

Owner: American River Transportation Co., Saint Louis, MO. More information available from US FCC via Universal Licensing System and Coast Guard Vessel Documentation Center.

Last reported at 2018-Jul-18 07:05 UTC. Time now 2018-Jul-19 23:05 UTC.
Position N 30°13' W 091°04'.

Length 60 m.

Type: Towing. MMSI: 366945650.

Date/timePositionNaut miles runAvg speedWind from/ knotsBaromVisibWave heightAir tempDewpointWater temp
2018-Jul-18 07:05N 30°13' W 091°04'5 7.6
2018-Jul-18 06:25N 30°11' W 091°09'4 6.2
2018-Jul-18 05:45N 30°14' W 091°07'97 4.5
2018-Jul-17 08:15N 31°52' W 091°15'8 7.7
2018-Jul-17 07:11N 31°59' W 091°10'1 7.9
2018-Jul-17 07:00N 31°59' W 091°09'4 7.8
2018-Jul-17 06:30N 32°01' W 091°05'4 7.9
2018-Jul-17 05:59N 32°05' W 091°04'3 7.0
2018-Jul-17 05:30N 32°07' W 091°06'2 3.6
2018-Jul-17 05:00N 32°08' W 091°04'4 7.1
2018-Jul-17 04:30N 32°08' W 091°00'4 8.6
2018-Jul-17 04:00N 32°13' W 090°59'4 8.1
2018-Jul-17 03:30N 32°16' W 090°57'4 8.5
2018-Jul-17 03:00N 32°19' W 090°54'3 5.8
2018-Jul-17 02:30N 32°21' W 090°57'3 6.2
2018-Jul-17 02:00N 32°22' W 091°00'3 6.8
2018-Jul-17 01:30N 32°26' W 091°01'4 8.0
2018-Jul-17 01:00N 32°27' W 091°06'4 7.4
2018-Jul-17 00:28N 32°31' W 091°06'8 7.4
2018-Jul-16 23:27N 32°38' W 091°09'7 7.4
2018-Jul-16 22:31N 32°43' W 091°03'0 7.1
2018-Jul-16 22:28N 32°44' W 091°04'  
Track history (hours):
 
Tides and Currents Weather Stations Pressure Air Temp Water Temp Dewpoint Dewpoint Depression Visibility Wind Speed Wind Dir Waves Ship Positions

MV Sally Archer

Owner: American River Transportation Co., Saint Louis, MO. More information available from US FCC via Universal Licensing System and Coast Guard Vessel Documentation Center.

Last reported at 2018-Jul-18 07:05 UTC. Time now 2018-Jul-19 23:05 UTC.
Position N 30°13' W 091°04'.

Length 60 m.

Type: Towing. MMSI: 366945650.

Date/timePositionNaut miles runAvg speedWind from/ knotsBaromVisibWave heightAir tempDewpointWater temp
2018-Jul-18 07:05N 30°13' W 091°04'5 7.6
2018-Jul-18 06:25N 30°11' W 091°09'4 6.2
2018-Jul-18 05:45N 30°14' W 091°07'97 4.5
2018-Jul-17 08:15N 31°52' W 091°15'8 7.7
2018-Jul-17 07:11N 31°59' W 091°10'1 7.9
2018-Jul-17 07:00N 31°59' W 091°09'4 7.8
2018-Jul-17 06:30N 32°01' W 091°05'4 7.9
2018-Jul-17 05:59N 32°05' W 091°04'3 7.0
2018-Jul-17 05:30N 32°07' W 091°06'2 3.6
2018-Jul-17 05:00N 32°08' W 091°04'4 7.1
2018-Jul-17 04:30N 32°08' W 091°00'4 8.6
2018-Jul-17 04:00N 32°13' W 090°59'4 8.1
2018-Jul-17 03:30N 32°16' W 090°57'4 8.5
2018-Jul-17 03:00N 32°19' W 090°54'3 5.8
2018-Jul-17 02:30N 32°21' W 090°57'3 6.2
2018-Jul-17 02:00N 32°22' W 091°00'3 6.8
2018-Jul-17 01:30N 32°26' W 091°01'4 8.0
2018-Jul-17 01:00N 32°27' W 091°06'4 7.4
2018-Jul-17 00:28N 32°31' W 091°06'8 7.4
2018-Jul-16 23:27N 32°38' W 091°09'7 7.4
2018-Jul-16 22:31N 32°43' W 091°03'0 7.1
2018-Jul-16 22:28N 32°44' W 091°04'  

Dump ship's entire track history